createdAt,value
2023-01-11T00:00:47.723Z,0.10
2023-01-11T00:03:15.095Z,0.20
2023-01-11T00:05:43.012Z,0.30
2023-01-11T00:08:10.165Z,0.30
2023-01-11T00:10:37.253Z,0.30
2023-01-11T00:13:04.572Z,0.40
2023-01-11T00:15:31.630Z,0.10
2023-01-11T00:17:58.785Z,0.30
2023-01-11T00:20:25.679Z,0.40
2023-01-11T00:22:52.337Z,0.50
2023-01-11T00:25:18.995Z,0.30
2023-01-11T00:27:47.390Z,0.30
2023-01-11T00:30:14.251Z,0.40
2023-01-11T00:32:41.056Z,0.20
2023-01-11T00:35:08.736Z,0.20
2023-01-11T00:37:35.312Z,0.30
2023-01-11T00:40:01.963Z,0.10
2023-01-11T00:42:46.998Z,0.20
2023-01-11T00:45:32.027Z,0.20
2023-01-11T00:48:00.317Z,0.30
2023-01-11T00:50:29.581Z,0.10
2023-01-11T00:52:58.082Z,0.20
2023-01-11T00:55:25.580Z,0.20
2023-01-11T00:57:52.779Z,0.20
2023-01-11T01:00:21.422Z,0.10
2023-01-11T01:02:48.361Z,0.20
2023-01-11T01:05:15.302Z,0.30
2023-01-11T01:07:42.065Z,0.10
2023-01-11T01:10:09.651Z,0.40
2023-01-11T01:12:54.942Z,0.30
2023-01-11T01:15:21.653Z,0.20
2023-01-11T01:17:48.326Z,0.30
2023-01-11T01:20:15.702Z,0.40
2023-01-11T01:22:42.798Z,0.30
2023-01-11T01:25:09.814Z,0.30
2023-01-11T01:27:36.418Z,0.40
2023-01-11T01:30:04.495Z,0.40
2023-01-11T01:32:31.095Z,0.40
2023-01-11T01:34:57.630Z,0.40
2023-01-11T01:37:24.208Z,0.40
2023-01-11T01:39:50.706Z,0.40
2023-01-11T01:42:24.109Z,0.40
2023-01-11T01:44:56.900Z,0.10
2023-01-11T01:47:29.587Z,0.10
2023-01-11T01:49:58.996Z,0.20
2023-01-11T01:52:29.168Z,0.10
2023-01-11T01:55:01.011Z,0.10
2023-01-11T01:57:33.527Z,0.20
2023-01-11T02:00:04.333Z,0.20
2023-01-11T02:04:59.932Z,0.00
2023-01-11T02:07:33.493Z,0.20
2023-01-11T02:10:09.957Z,0.30
2023-01-11T02:12:44.807Z,0.30
2023-01-11T02:15:13.153Z,0.20
2023-01-11T02:17:39.870Z,0.10
2023-01-11T02:20:27.762Z,0.10
2023-01-11T02:23:07.673Z,0.30
2023-01-11T02:25:59.406Z,0.20
2023-01-11T02:28:34.138Z,0.30
2023-01-11T02:31:25.604Z,0.20
2023-01-11T02:34:10.414Z,0.10
2023-01-11T02:37:02.705Z,0.20
2023-01-11T02:39:38.749Z,0.30
2023-01-11T02:42:33.265Z,0.20
2023-01-11T02:45:15.064Z,0.30
2023-01-11T02:47:59.292Z,0.20
2023-01-11T02:53:09.645Z,0.30
2023-01-11T02:55:44.425Z,0.30
2023-01-11T02:58:12.568Z,0.10
2023-01-11T03:00:41.048Z,0.20
2023-01-11T03:03:30.616Z,0.10
2023-01-11T03:06:05.829Z,0.20
2023-01-11T03:08:57.205Z,0.20
2023-01-11T03:11:58.709Z,0.10
2023-01-11T03:14:28.004Z,0.10
2023-01-11T03:16:57.827Z,0.20
2023-01-11T03:19:55.644Z,0.20
2023-01-11T03:22:36.926Z,0.00
2023-01-11T03:25:13.643Z,0.10
2023-01-11T03:28:01.296Z,0.30
2023-01-11T03:30:43.943Z,0.10
2023-01-11T03:33:20.482Z,0.10
2023-01-11T03:36:01.222Z,0.20
2023-01-11T03:38:36.633Z,0.10
2023-01-11T03:41:09.828Z,0.20
2023-01-11T03:43:39.969Z,0.10
2023-01-11T03:46:17.428Z,0.20
2023-01-11T03:48:47.011Z,0.00
2023-01-11T03:51:18.383Z,0.20
2023-01-11T03:53:47.856Z,0.20
2023-01-11T03:56:18.529Z,0.30
2023-01-11T03:58:45.203Z,0.30
2023-01-11T04:01:13.194Z,0.10
2023-01-11T04:03:39.825Z,0.30
2023-01-11T04:06:08.884Z,0.30
2023-01-11T04:08:35.449Z,0.20
2023-01-11T04:11:04.760Z,0.10
2023-01-11T04:13:32.426Z,0.20
2023-01-11T04:15:58.999Z,0.20
2023-01-11T04:18:25.638Z,0.30
2023-01-11T04:20:52.234Z,0.20
2023-01-11T04:23:18.841Z,0.30
2023-01-11T04:25:47.034Z,0.20
2023-01-11T04:28:13.563Z,0.30
2023-01-11T04:30:40.089Z,0.10
2023-01-11T04:33:06.634Z,0.10
2023-01-11T04:35:33.186Z,0.30
2023-01-11T04:37:59.836Z,0.20
2023-01-11T04:40:26.445Z,0.20
2023-01-11T04:42:52.997Z,0.20
2023-01-11T04:45:19.552Z,0.20
2023-01-11T04:47:46.187Z,0.10
2023-01-11T04:50:12.947Z,0.00
2023-01-11T04:52:41.481Z,0.40
2023-01-11T04:55:09.215Z,0.20
2023-01-11T04:57:36.273Z,0.30
2023-01-11T05:00:08.622Z,0.20
2023-01-11T05:02:35.142Z,0.40
2023-01-11T05:05:01.768Z,0.30
2023-01-11T05:07:28.508Z,0.20
2023-01-11T05:09:55.179Z,0.40
2023-01-11T05:12:21.789Z,0.30
2023-01-11T05:14:48.453Z,0.30
2023-01-11T05:17:16.716Z,0.30
2023-01-11T05:19:43.367Z,0.30
2023-01-11T05:22:10.377Z,0.20
2023-01-11T05:24:37.001Z,0.30
2023-01-11T05:27:04.152Z,0.40
2023-01-11T05:29:30.723Z,0.50
2023-01-11T05:31:57.472Z,0.40
2023-01-11T05:34:24.123Z,0.50
2023-01-11T05:36:50.692Z,0.20
2023-01-11T05:39:17.313Z,0.50
2023-01-11T05:41:43.947Z,0.40
2023-01-11T05:44:32.594Z,0.60
2023-01-11T05:46:59.648Z,1.20
2023-01-11T05:49:26.400Z,0.90
2023-01-11T05:51:55.002Z,1.60
2023-01-11T05:54:21.983Z,1.40
2023-01-11T05:56:48.657Z,1.40
2023-01-11T05:59:15.243Z,1.20
2023-01-11T06:01:41.975Z,0.80
2023-01-11T06:04:08.745Z,0.90
2023-01-11T06:06:35.704Z,1.20
2023-01-11T06:09:02.476Z,0.90
2023-01-11T06:11:29.140Z,0.90
2023-01-11T06:13:55.835Z,0.50
2023-01-11T06:16:23.783Z,1.50
2023-01-11T06:18:52.719Z,1.60
2023-01-11T06:21:20.760Z,1.50
2023-01-11T06:23:50.800Z,1.60
2023-01-11T06:26:20.556Z,1.30
2023-01-11T06:28:48.186Z,1.70
2023-01-11T06:31:17.291Z,1.60
2023-01-11T06:33:45.164Z,1.70
2023-01-11T06:36:13.566Z,2.00
2023-01-11T06:38:40.970Z,2.20
2023-01-11T06:41:08.554Z,1.80
2023-01-11T06:43:37.240Z,2.30
2023-01-11T06:46:04.837Z,1.60
2023-01-11T06:48:31.993Z,2.40
2023-01-11T06:50:59.459Z,2.70
2023-01-11T06:53:29.088Z,1.20
2023-01-11T06:55:58.279Z,1.20
2023-01-11T06:58:26.292Z,2.10
2023-01-11T07:00:55.222Z,1.60
2023-01-11T07:03:26.036Z,1.40
2023-01-11T07:05:56.630Z,1.90
2023-01-11T07:08:24.998Z,1.90
2023-01-11T07:10:52.275Z,1.50
2023-01-11T07:13:19.192Z,1.10
2023-01-11T07:15:50.892Z,1.40
2023-01-11T07:18:19.156Z,1.20
2023-01-11T07:20:46.199Z,2.20
2023-01-11T07:23:12.817Z,1.30
2023-01-11T07:25:39.448Z,0.90
2023-01-11T07:28:08.405Z,1.30
2023-01-11T07:30:55.551Z,1.70
2023-01-11T07:33:23.521Z,1.90
2023-01-11T07:35:50.249Z,1.00
2023-01-11T07:38:17.093Z,1.20
2023-01-11T07:40:43.870Z,1.60
2023-01-11T07:43:14.976Z,1.20
2023-01-11T07:45:46.757Z,1.20
2023-01-11T07:48:14.763Z,1.20
2023-01-11T07:50:44.556Z,1.30
2023-01-11T07:53:12.486Z,1.20
2023-01-11T07:55:39.895Z,1.10
2023-01-11T07:58:07.591Z,1.20
2023-01-11T08:00:34.366Z,1.20
2023-01-11T08:03:02.305Z,1.70
2023-01-11T08:05:29.327Z,1.80
2023-01-11T08:07:55.972Z,2.40
2023-01-11T08:10:22.985Z,2.60
2023-01-11T08:13:09.257Z,2.30
2023-01-11T08:15:42.480Z,2.10
2023-01-11T08:18:11.443Z,2.50
2023-01-11T08:20:38.852Z,2.50
2023-01-11T08:23:07.837Z,2.50
2023-01-11T08:25:35.006Z,2.00
2023-01-11T08:28:04.528Z,1.90
2023-01-11T08:30:31.211Z,1.80
2023-01-11T08:33:01.315Z,1.30
2023-01-11T08:35:28.775Z,3.30
2023-01-11T08:37:55.424Z,3.10
2023-01-11T08:40:24.195Z,2.60
2023-01-11T08:42:58.081Z,2.10
2023-01-11T08:45:25.730Z,1.40
2023-01-11T08:47:53.364Z,1.40
2023-01-11T08:50:22.433Z,2.30
2023-01-11T08:52:51.371Z,2.00
2023-01-11T08:55:19.087Z,1.50
2023-01-11T08:57:46.187Z,2.10
2023-01-11T09:00:13.463Z,2.20
2023-01-11T09:02:40.277Z,2.10
2023-01-11T09:05:07.287Z,1.80
2023-01-11T09:07:33.996Z,2.40
2023-01-11T09:10:00.603Z,2.40
2023-01-11T09:12:27.740Z,1.90
2023-01-11T09:14:54.520Z,1.40
2023-01-11T09:17:21.171Z,1.30
2023-01-11T09:19:47.752Z,1.10
2023-01-11T09:22:14.608Z,1.20
2023-01-11T09:24:41.375Z,1.30
2023-01-11T09:27:08.093Z,1.00
2023-01-11T09:29:37.190Z,1.40
2023-01-11T09:32:05.039Z,1.40
2023-01-11T09:34:31.922Z,1.20
2023-01-11T09:37:00.810Z,1.10
2023-01-11T09:39:28.852Z,1.10
2023-01-11T09:42:36.748Z,1.40
2023-01-11T09:45:24.522Z,1.70
2023-01-11T09:47:51.254Z,2.00
2023-01-11T09:50:20.599Z,2.30
2023-01-11T09:53:14.664Z,1.70
2023-01-11T09:55:46.712Z,1.80
2023-01-11T10:00:44.087Z,1.90
2023-01-11T10:03:24.831Z,2.20
2023-01-11T10:06:14.952Z,3.80
2023-01-11T10:18:30.322Z,2.60
2023-01-11T10:18:53.380Z,2.20
2023-01-11T10:21:38.010Z,2.00
2023-01-11T10:24:23.140Z,1.80
2023-01-11T10:26:53.474Z,2.30
2023-01-11T10:29:40.276Z,2.10
2023-01-11T10:32:34.732Z,1.90
2023-01-11T10:35:45.862Z,2.60
2023-01-11T10:38:43.445Z,3.30
2023-01-11T10:41:26.242Z,2.70
2023-01-11T10:44:09.035Z,3.00
2023-01-11T10:46:44.703Z,2.50
2023-01-11T10:49:26.849Z,2.90
2023-01-11T10:51:58.870Z,2.40
2023-01-11T10:57:03.600Z,3.30
2023-01-11T11:00:02.424Z,2.40
2023-01-11T11:02:53.959Z,2.80
2023-01-11T11:05:26.511Z,1.90
2023-01-11T11:07:59.448Z,1.90
2023-01-11T11:10:46.539Z,2.00
2023-01-11T11:13:28.505Z,2.30
2023-01-11T11:16:27.978Z,2.20
2023-01-11T11:18:58.726Z,2.00
2023-01-11T11:21:29.134Z,2.10
2023-01-11T11:24:00.627Z,2.40
2023-01-11T11:26:49.657Z,2.40
2023-01-11T11:29:23.707Z,2.40
2023-01-11T11:31:51.248Z,2.30
2023-01-11T11:34:21.140Z,2.80
2023-01-11T11:36:52.297Z,2.70
2023-01-11T11:39:20.603Z,2.50
2023-01-11T11:41:58.796Z,2.80
2023-01-11T11:44:28.128Z,2.60
2023-01-11T11:47:03.123Z,2.60
2023-01-11T11:49:32.561Z,2.60
2023-01-11T11:52:04.264Z,2.00
2023-01-11T11:54:43.868Z,2.40
2023-01-11T11:57:36.196Z,2.60
2023-01-11T12:00:09.386Z,2.90
2023-01-11T12:02:44.115Z,3.10
2023-01-11T12:05:11.237Z,2.50
2023-01-11T12:07:54.672Z,2.50
2023-01-11T12:10:30.759Z,2.70
2023-01-11T12:13:02.637Z,2.30
2023-01-11T12:15:31.446Z,2.60
2023-01-11T12:18:24.003Z,3.00
2023-01-11T12:20:50.860Z,3.00
2023-01-11T12:23:25.694Z,3.20
2023-01-11T12:26:01.879Z,2.80
2023-01-11T12:28:56.440Z,2.20
2023-01-11T12:31:50.589Z,2.40
2023-01-11T12:34:35.804Z,3.00
2023-01-11T12:37:11.308Z,2.80
2023-01-11T12:39:53.567Z,2.60
2023-01-11T12:42:35.348Z,2.80
2023-01-11T12:45:20.612Z,2.50
2023-01-11T12:48:17.966Z,2.50
2023-01-11T12:50:47.632Z,2.90
2023-01-11T12:53:56.066Z,2.40
2023-01-11T12:56:46.210Z,2.90
2023-01-11T12:59:22.563Z,3.90
2023-01-11T13:02:01.403Z,3.80
2023-01-11T13:04:35.480Z,3.90
2023-01-11T13:07:14.823Z,5.60
2023-01-11T13:09:54.611Z,3.80
2023-01-11T13:12:36.592Z,2.90
2023-01-11T13:15:08.981Z,3.10
2023-01-11T13:17:42.007Z,2.90
2023-01-11T13:20:11.751Z,2.90
2023-01-11T13:22:43.368Z,3.50
2023-01-11T13:25:24.123Z,3.20
2023-01-11T13:27:53.164Z,4.00
2023-01-11T13:30:24.218Z,3.70
2023-01-11T13:33:11.662Z,3.50
2023-01-11T13:35:51.814Z,3.40
2023-01-11T13:38:41.942Z,3.60
2023-01-11T13:41:14.495Z,3.40
2023-01-11T13:44:13.006Z,3.50
2023-01-11T13:46:58.199Z,3.40
2023-01-11T13:49:43.788Z,3.80
2023-01-11T13:52:14.768Z,3.60
2023-01-11T13:55:00.891Z,4.00
2023-01-11T13:57:40.156Z,4.10
2023-01-11T14:00:24.121Z,4.00
2023-01-11T14:03:18.039Z,4.30
2023-01-11T14:06:26.767Z,4.50
2023-01-11T14:09:02.458Z,4.90
2023-01-11T14:12:10.973Z,4.30
2023-01-11T14:15:02.521Z,3.90
2023-01-11T14:17:29.216Z,4.10
2023-01-11T14:20:07.422Z,3.90
2023-01-11T14:22:58.192Z,3.90
2023-01-11T14:25:32.895Z,4.40
2023-01-11T14:28:30.690Z,4.40
2023-01-11T14:31:06.550Z,4.40
2023-01-11T14:33:57.942Z,5.30
2023-01-11T14:36:52.601Z,4.70
2023-01-11T14:39:41.226Z,5.10
2023-01-11T14:42:32.326Z,4.80
2023-01-11T14:45:26.736Z,4.90
2023-01-11T14:48:24.437Z,5.10
2023-01-11T14:51:32.486Z,4.80
2023-01-11T14:54:16.827Z,4.50
2023-01-11T14:56:43.479Z,4.30
2023-01-11T14:59:31.174Z,3.90
2023-01-11T15:02:03.998Z,4.30
2023-01-11T15:04:51.394Z,4.40
2023-01-11T15:07:33.570Z,4.10
2023-01-11T15:10:25.168Z,4.90
2023-01-11T15:12:56.254Z,4.30
2023-01-11T15:15:47.861Z,4.90
2023-01-11T15:18:24.687Z,4.90
2023-01-11T15:21:06.938Z,5.60
2023-01-11T15:23:46.280Z,5.20
2023-01-11T15:26:16.100Z,5.00
2023-01-11T15:28:55.841Z,5.00
2023-01-11T15:31:49.064Z,7.50
2023-01-11T15:34:23.515Z,9.10
2023-01-11T15:37:00.184Z,8.00
2023-01-11T15:39:45.723Z,8.80
2023-01-11T15:42:15.045Z,6.50
2023-01-11T15:45:03.902Z,5.60
2023-01-11T15:48:06.948Z,4.70
2023-01-11T15:50:53.781Z,4.30
2023-01-11T15:53:49.242Z,5.00
2023-01-11T15:56:18.989Z,9.00
2023-01-11T15:59:07.667Z,9.10
2023-01-11T16:02:11.208Z,7.90
2023-01-11T16:04:48.658Z,6.90
2023-01-11T16:07:25.508Z,6.40
2023-01-11T16:10:07.854Z,7.60
2023-01-11T16:12:56.732Z,7.10
2023-01-11T16:15:44.208Z,8.70
2023-01-11T16:18:15.187Z,10.60
2023-01-11T16:20:45.992Z,13.60
2023-01-11T16:23:20.697Z,14.60
2023-01-11T16:25:54.871Z,12.60
2023-01-11T16:28:21.793Z,9.20
2023-01-11T16:30:56.491Z,8.30
2023-01-11T16:33:27.163Z,7.70
2023-01-11T16:36:04.389Z,7.80
2023-01-11T16:38:35.164Z,6.10
2023-01-11T16:41:02.530Z,7.10
2023-01-11T16:43:33.600Z,7.40
2023-01-11T16:46:00.342Z,7.10
2023-01-11T16:48:29.664Z,6.70
2023-01-11T16:51:14.336Z,11.20
2023-01-11T16:53:43.927Z,7.50
2023-01-11T16:56:18.643Z,7.80
2023-01-11T16:59:04.686Z,9.50
2023-01-11T17:01:52.327Z,6.90
2023-01-11T17:04:48.478Z,7.30
2023-01-11T17:07:29.477Z,6.60
2023-01-11T17:10:24.507Z,7.70
2023-01-11T17:13:45.407Z,5.60
2023-01-11T17:16:15.691Z,5.30
2023-01-11T17:18:43.779Z,6.10
2023-01-11T17:21:25.984Z,6.40
2023-01-11T17:23:58.337Z,6.90
2023-01-11T17:26:29.599Z,6.20
2023-01-11T17:28:58.640Z,5.70
2023-01-11T17:31:32.079Z,5.70
2023-01-11T17:34:08.378Z,5.20
2023-01-11T17:36:36.311Z,5.10
2023-01-11T17:39:04.691Z,5.10
2023-01-11T17:41:50.689Z,5.40
2023-01-11T17:44:39.366Z,4.30
2023-01-11T17:47:10.956Z,5.30
2023-01-11T17:49:38.786Z,6.40
2023-01-11T17:52:18.216Z,5.60
2023-01-11T17:54:50.719Z,6.60
2023-01-11T17:57:18.949Z,7.40
2023-01-11T17:59:45.558Z,6.40
2023-01-11T18:02:14.273Z,6.40
2023-01-11T18:04:41.546Z,5.80
2023-01-11T18:07:19.120Z,5.30
2023-01-11T18:09:48.746Z,5.10
2023-01-11T18:12:23.145Z,5.00
2023-01-11T18:15:06.560Z,5.00
2023-01-11T18:17:35.052Z,4.70
2023-01-11T18:20:23.439Z,4.60
2023-01-11T18:23:05.297Z,4.00
2023-01-11T18:25:35.177Z,5.00
2023-01-11T18:28:26.993Z,5.60
2023-01-11T18:30:58.360Z,4.30
2023-01-11T18:33:28.546Z,5.70
2023-01-11T18:36:01.788Z,7.00
2023-01-11T18:38:34.090Z,6.90
2023-01-11T18:41:25.637Z,5.40
2023-01-11T18:43:53.063Z,5.50
2023-01-11T18:46:23.199Z,5.90
2023-01-11T18:48:50.200Z,5.20
2023-01-11T18:51:21.603Z,6.00
2023-01-11T18:53:48.259Z,5.50
2023-01-11T18:56:16.381Z,4.60
2023-01-11T18:58:43.150Z,5.50
2023-01-11T19:01:10.564Z,6.20
2023-01-11T19:03:37.846Z,6.60
2023-01-11T19:06:05.579Z,6.00
2023-01-11T19:08:32.468Z,6.20
2023-01-11T19:10:59.088Z,6.50
2023-01-11T19:13:25.750Z,6.00
2023-01-11T19:15:52.397Z,5.80
2023-01-11T19:18:19.118Z,6.00
2023-01-11T19:20:45.762Z,5.60
2023-01-11T19:23:12.399Z,5.30
2023-01-11T19:25:39.059Z,6.70
2023-01-11T19:28:06.003Z,6.70
2023-01-11T19:30:32.758Z,6.30
2023-01-11T19:32:59.354Z,5.50
2023-01-11T19:35:25.956Z,5.60
2023-01-11T19:37:52.966Z,5.50
2023-01-11T19:40:21.416Z,5.00
2023-01-11T19:42:47.985Z,5.10
2023-01-11T19:45:14.674Z,5.40
2023-01-11T19:47:41.317Z,6.80
2023-01-11T19:50:08.437Z,5.50
2023-01-11T19:52:35.055Z,5.10
2023-01-11T19:55:01.677Z,5.70
2023-01-11T19:57:28.857Z,7.00
2023-01-11T19:59:55.436Z,7.40
2023-01-11T20:02:22.308Z,7.30
2023-01-11T20:04:49.215Z,6.00
2023-01-11T20:07:16.029Z,5.90
2023-01-11T20:09:43.380Z,6.80
2023-01-11T20:12:11.682Z,5.80
2023-01-11T20:14:40.380Z,5.20
2023-01-11T20:17:08.070Z,5.30
2023-01-11T20:19:34.741Z,5.00
2023-01-11T20:22:01.485Z,5.90
2023-01-11T20:24:30.013Z,5.30
2023-01-11T20:27:00.605Z,5.10
2023-01-11T20:29:27.592Z,5.20
2023-01-11T20:31:54.248Z,5.50
2023-01-11T20:34:21.242Z,9.00
2023-01-11T20:36:48.955Z,8.20
2023-01-11T20:39:15.691Z,7.70
2023-01-11T20:41:48.668Z,5.80
2023-01-11T20:44:18.137Z,8.70
2023-01-11T20:46:47.850Z,7.50
2023-01-11T20:49:15.307Z,6.80
2023-01-11T20:51:42.986Z,7.20
2023-01-11T20:54:10.466Z,6.20
2023-01-11T20:56:38.603Z,5.10
2023-01-11T20:59:07.443Z,5.20
2023-01-11T21:01:35.630Z,6.10
2023-01-11T21:04:04.643Z,5.80
2023-01-11T21:06:32.695Z,5.40
2023-01-11T21:09:01.169Z,5.90
2023-01-11T21:11:30.805Z,6.80
2023-01-11T21:13:59.409Z,8.10
2023-01-11T21:16:28.538Z,6.50
2023-01-11T21:19:05.215Z,5.50
2023-01-11T21:21:34.303Z,5.90
2023-01-11T21:24:03.591Z,7.30
2023-01-11T21:26:31.583Z,7.00
2023-01-11T21:28:59.920Z,8.80
2023-01-11T21:31:30.148Z,9.60
2023-01-11T21:33:57.912Z,8.40
2023-01-11T21:36:26.187Z,8.10
2023-01-11T21:38:54.641Z,6.50
2023-01-11T21:41:42.637Z,5.10
2023-01-11T21:44:10.660Z,5.20
2023-01-11T21:46:38.092Z,5.60
2023-01-11T21:49:05.247Z,5.40
2023-01-11T21:51:32.251Z,5.70
2023-01-11T21:53:59.383Z,5.40
2023-01-11T21:56:26.471Z,5.50
2023-01-11T21:58:53.334Z,5.00
2023-01-11T22:01:21.794Z,5.10
2023-01-11T22:03:49.159Z,4.80
2023-01-11T22:06:17.165Z,4.60
2023-01-11T22:08:45.123Z,4.70
2023-01-11T22:11:14.182Z,4.10
2023-01-11T22:13:41.513Z,4.10
2023-01-11T22:16:13.817Z,3.80
2023-01-11T22:18:41.399Z,4.20
2023-01-11T22:21:17.103Z,3.70
2023-01-11T22:23:44.495Z,4.50
2023-01-11T22:26:17.178Z,4.00
2023-01-11T22:29:04.583Z,4.00
2023-01-11T22:31:32.983Z,3.90
2023-01-11T22:34:00.333Z,4.20
2023-01-11T22:36:28.576Z,3.90
2023-01-11T22:38:55.892Z,4.40
2023-01-11T22:41:24.212Z,4.10
2023-01-11T22:43:51.709Z,3.80
2023-01-11T22:46:21.314Z,4.00
2023-01-11T22:48:48.819Z,4.10
2023-01-11T22:51:17.644Z,3.90
2023-01-11T22:53:46.943Z,3.90
2023-01-11T22:56:18.710Z,3.50
2023-01-11T22:58:46.508Z,3.80
2023-01-11T23:01:19.012Z,3.60
2023-01-11T23:03:46.087Z,3.80
2023-01-11T23:06:16.233Z,4.00
2023-01-11T23:08:43.228Z,3.90
2023-01-11T23:11:13.946Z,4.20
2023-01-11T23:13:54.999Z,3.70
2023-01-11T23:16:22.821Z,3.40
2023-01-11T23:18:49.640Z,3.90
2023-01-11T23:21:17.117Z,3.50
2023-01-11T23:23:44.022Z,3.40
2023-01-11T23:26:12.232Z,3.10
2023-01-11T23:28:39.563Z,2.60
2023-01-11T23:31:15.983Z,2.80
2023-01-11T23:33:47.508Z,3.50
2023-01-11T23:36:15.425Z,3.30
2023-01-11T23:38:42.534Z,3.20
2023-01-11T23:41:30.390Z,3.20
2023-01-11T23:43:57.631Z,3.30
2023-01-11T23:46:44.249Z,3.50
2023-01-11T23:49:12.049Z,3.30
2023-01-11T23:51:38.615Z,3.80
2023-01-11T23:54:05.961Z,3.90
2023-01-11T23:56:33.729Z,3.80
2023-01-11T23:59:00.795Z,3.50
